createdAt,value
2017-05-15T00:00:28.453Z,7.08
2017-05-15T00:02:55.453Z,8.20
2017-05-15T00:05:22.449Z,8.90
2017-05-15T00:07:50.255Z,8.70
2017-05-15T00:10:17.284Z,8.68
2017-05-15T00:12:44.305Z,10.58
2017-05-15T00:15:11.316Z,9.60
2017-05-15T00:17:39.093Z,10.62
2017-05-15T00:20:06.524Z,11.84
2017-05-15T00:22:33.538Z,11.18
2017-05-15T00:25:00.555Z,11.16
2017-05-15T00:27:27.569Z,11.12
2017-05-15T00:29:54.576Z,9.52
2017-05-15T00:32:21.962Z,9.40
2017-05-15T00:34:48.989Z,10.30
2017-05-15T00:37:16.003Z,9.42
2017-05-15T00:39:43.049Z,9.28
2017-05-15T00:42:10.057Z,10.00
2017-05-15T00:44:37.506Z,9.70
2017-05-15T00:47:04.524Z,9.32
2017-05-15T00:49:31.553Z,9.38
2017-05-15T00:51:58.584Z,9.82
2017-05-15T00:54:25.582Z,9.68
2017-05-15T00:56:52.909Z,9.72
2017-05-15T00:59:19.962Z,9.58
2017-05-15T01:01:47.050Z,9.56
2017-05-15T01:04:14.513Z,9.28
2017-05-15T01:06:42.294Z,9.24
2017-05-15T01:09:10.205Z,9.10
2017-05-15T01:11:37.289Z,9.20
2017-05-15T01:14:05.040Z,8.18
2017-05-15T01:16:32.520Z,9.48
2017-05-15T01:19:00.247Z,9.00
2017-05-15T01:21:29.209Z,8.78
2017-05-15T01:23:56.243Z,9.30
2017-05-15T01:26:24.001Z,10.48
2017-05-15T01:28:52.103Z,9.90
2017-05-15T01:31:19.147Z,9.06
2017-05-15T01:33:46.172Z,10.70
2017-05-15T01:36:13.209Z,10.22
2017-05-15T01:38:41.005Z,10.08
2017-05-15T01:41:08.403Z,10.56
2017-05-15T01:43:35.420Z,12.28
2017-05-15T01:46:02.469Z,12.20
2017-05-15T01:48:29.492Z,12.00
2017-05-15T01:50:56.580Z,12.62
2017-05-15T01:53:23.965Z,12.32
2017-05-15T01:55:51.755Z,13.40
2017-05-15T01:58:18.783Z,14.80
2017-05-15T02:00:45.793Z,16.32
2017-05-15T02:03:12.819Z,16.46
2017-05-15T02:05:40.204Z,14.92
2017-05-15T02:08:07.595Z,12.94
2017-05-15T02:10:34.704Z,15.80
2017-05-15T02:13:01.746Z,17.78
2017-05-15T02:15:28.776Z,17.68
2017-05-15T02:17:56.182Z,21.66
2017-05-15T02:20:23.210Z,23.88
2017-05-15T02:22:50.240Z,21.30
2017-05-15T02:25:17.316Z,28.52
2017-05-15T02:27:44.379Z,25.58
2017-05-15T02:30:12.552Z,24.94
2017-05-15T02:32:40.320Z,26.52
2017-05-15T02:35:07.343Z,31.70
2017-05-15T02:37:34.379Z,28.96
2017-05-15T02:40:01.430Z,29.94
2017-05-15T02:42:28.920Z,27.70
2017-05-15T02:44:56.692Z,29.34
2017-05-15T02:47:23.730Z,28.96
2017-05-15T02:49:51.524Z,23.44
2017-05-15T02:52:18.544Z,26.88
2017-05-15T02:54:46.001Z,30.16
2017-05-15T02:57:13.048Z,28.90
2017-05-15T02:59:40.854Z,30.24
2017-05-15T03:02:07.910Z,26.34
2017-05-15T03:04:34.898Z,27.00
2017-05-15T03:07:02.369Z,28.52
2017-05-15T03:09:29.377Z,27.68
2017-05-15T03:11:56.573Z,29.02
2017-05-15T03:14:24.435Z,28.66
2017-05-15T03:16:52.206Z,28.26
2017-05-15T03:19:20.258Z,28.62
2017-05-15T03:21:47.304Z,29.18
2017-05-15T03:24:14.341Z,30.84
2017-05-15T03:26:41.519Z,30.50
2017-05-15T03:29:09.318Z,33.52
2017-05-15T03:31:36.723Z,37.18
2017-05-15T03:34:03.775Z,35.80
2017-05-15T03:36:30.820Z,33.14
2017-05-15T03:38:57.871Z,34.56
2017-05-15T03:41:24.929Z,34.56
2017-05-15T03:43:52.494Z,34.94
2017-05-15T03:46:20.338Z,35.82
2017-05-15T03:48:47.413Z,36.16
2017-05-15T03:51:14.476Z,35.78
2017-05-15T03:53:42.221Z,35.60
2017-05-15T03:56:10.359Z,37.32
2017-05-15T03:58:37.392Z,38.30
2017-05-15T04:01:04.415Z,38.58
2017-05-15T04:03:31.496Z,39.62
2017-05-15T04:05:58.536Z,37.50
2017-05-15T04:08:25.589Z,37.26
2017-05-15T04:10:52.633Z,37.88
2017-05-15T04:13:19.665Z,37.72
2017-05-15T04:15:47.025Z,39.68
2017-05-15T04:18:14.040Z,39.26
2017-05-15T04:20:41.896Z,39.10
2017-05-15T04:23:08.948Z,38.50
2017-05-15T04:25:36.004Z,38.86
2017-05-15T04:28:04.158Z,43.94
2017-05-15T04:30:31.209Z,40.72
2017-05-15T04:32:58.241Z,40.82
2017-05-15T04:35:25.276Z,43.38
2017-05-15T04:37:52.311Z,38.20
2017-05-15T04:40:19.724Z,40.84
2017-05-15T04:42:46.774Z,41.16
2017-05-15T04:45:13.784Z,36.58
2017-05-15T04:47:40.833Z,38.72
2017-05-15T04:50:07.873Z,40.02
2017-05-15T04:52:35.354Z,39.22
2017-05-15T04:55:02.372Z,40.80
2017-05-15T04:57:29.400Z,39.56
2017-05-15T04:59:56.451Z,38.42
2017-05-15T05:02:23.472Z,38.10
2017-05-15T05:04:51.015Z,36.50
2017-05-15T05:07:18.052Z,34.24
2017-05-15T05:09:45.064Z,36.94
2017-05-15T05:12:12.101Z,35.58
2017-05-15T05:14:39.128Z,36.84
2017-05-15T05:17:06.548Z,34.88
2017-05-15T05:19:40.738Z,35.94
2017-05-15T05:22:11.088Z,33.52
2017-05-15T05:24:53.121Z,31.42
2017-05-15T05:27:32.834Z,31.06
2017-05-15T05:30:09.018Z,32.82
2017-05-15T05:32:47.335Z,32.34
2017-05-15T05:35:16.073Z,34.36
2017-05-15T05:38:07.613Z,32.14
2017-05-15T05:40:40.562Z,34.70
2017-05-15T05:43:17.480Z,32.72
2017-05-15T05:45:45.304Z,32.52
2017-05-15T05:48:12.354Z,33.52
2017-05-15T05:50:39.884Z,34.42
2017-05-15T05:53:07.677Z,34.32
2017-05-15T05:55:47.584Z,33.66
2017-05-15T05:58:16.443Z,34.62
2017-05-15T06:00:53.037Z,34.22
2017-05-15T06:03:44.140Z,34.46
2017-05-15T06:06:23.790Z,31.76
2017-05-15T06:09:03.235Z,35.62
2017-05-15T06:11:43.809Z,37.20
2017-05-15T06:14:24.064Z,33.72
2017-05-15T06:17:03.688Z,29.98
2017-05-15T06:19:30.569Z,28.46
2017-05-15T06:21:58.342Z,26.96
2017-05-15T06:24:46.975Z,27.96
2017-05-15T06:27:13.992Z,27.96
2017-05-15T06:29:40.976Z,27.56
2017-05-15T06:32:09.066Z,26.34
2017-05-15T06:34:36.087Z,29.20
2017-05-15T06:37:03.127Z,26.40
2017-05-15T06:39:43.696Z,24.60
2017-05-15T06:42:23.237Z,24.82
2017-05-15T06:44:50.890Z,21.86
2017-05-15T06:47:17.873Z,21.50
2017-05-15T06:49:45.576Z,20.34
2017-05-15T06:52:12.656Z,17.82
2017-05-15T06:54:39.607Z,18.10
2017-05-15T06:57:06.952Z,16.92
2017-05-15T06:59:33.942Z,17.30
2017-05-15T07:02:00.947Z,17.40
2017-05-15T07:04:28.709Z,15.62
2017-05-15T07:06:55.587Z,15.16
2017-05-15T07:09:22.674Z,17.76
2017-05-15T07:11:49.705Z,18.84
2017-05-15T07:14:17.316Z,17.58
2017-05-15T07:16:45.094Z,18.00
2017-05-15T07:19:12.153Z,15.60
2017-05-15T07:21:39.342Z,13.62
2017-05-15T07:24:06.427Z,14.20
2017-05-15T07:26:34.603Z,11.32
2017-05-15T07:29:02.425Z,11.74
2017-05-15T07:31:29.456Z,12.00
2017-05-15T07:33:57.305Z,11.28
2017-05-15T07:36:24.685Z,12.72
2017-05-15T07:38:51.735Z,12.96
2017-05-15T07:41:19.112Z,12.74
2017-05-15T07:43:46.170Z,12.10
2017-05-15T07:46:13.376Z,12.30
2017-05-15T07:48:40.404Z,11.92
2017-05-15T07:51:07.429Z,12.10
2017-05-15T07:53:35.084Z,11.20
2017-05-15T07:56:02.130Z,9.04
2017-05-15T07:58:29.999Z,8.74
2017-05-15T08:00:57.050Z,9.46
2017-05-15T08:03:24.819Z,10.26
2017-05-15T08:05:52.976Z,10.62
2017-05-15T08:08:20.778Z,10.80
2017-05-15T08:10:47.863Z,10.24
2017-05-15T08:13:14.916Z,9.98
2017-05-15T08:15:41.934Z,9.78
2017-05-15T08:18:09.357Z,10.76
2017-05-15T08:20:36.349Z,9.98
2017-05-15T08:23:03.412Z,11.86
2017-05-15T08:25:30.428Z,11.88
2017-05-15T08:27:57.588Z,9.58
2017-05-15T08:30:24.995Z,11.40
2017-05-15T08:32:52.033Z,10.40
2017-05-15T08:35:19.079Z,10.06
2017-05-15T08:37:46.155Z,12.02
2017-05-15T08:40:13.920Z,10.60
2017-05-15T08:42:42.069Z,11.64
2017-05-15T08:45:09.204Z,10.64
2017-05-15T08:47:37.020Z,10.12
2017-05-15T08:50:04.077Z,10.30
2017-05-15T08:52:31.168Z,10.16
2017-05-15T08:54:58.659Z,9.74
2017-05-15T08:57:25.704Z,10.18
2017-05-15T08:59:53.360Z,8.42
2017-05-15T09:02:20.365Z,8.90
2017-05-15T09:04:48.211Z,8.32
2017-05-15T09:07:15.723Z,8.26
2017-05-15T09:09:43.534Z,8.62
2017-05-15T09:12:10.557Z,8.06
2017-05-15T09:14:37.603Z,8.38
2017-05-15T09:17:04.636Z,6.62
2017-05-15T09:19:32.802Z,7.04
2017-05-15T09:22:00.582Z,6.98
2017-05-15T09:24:27.626Z,6.70
2017-05-15T09:26:55.408Z,6.40
2017-05-15T09:29:22.487Z,6.20
2017-05-15T09:31:50.615Z,7.64
2017-05-15T09:34:18.464Z,7.80
2017-05-15T09:36:46.244Z,6.54
2017-05-15T09:39:13.380Z,6.26
2017-05-15T09:41:48.796Z,7.52
2017-05-15T09:44:16.319Z,7.80
2017-05-15T09:46:43.780Z,7.02
2017-05-15T09:49:10.817Z,6.30
2017-05-15T09:51:37.861Z,6.10
2017-05-15T09:54:05.896Z,6.86
2017-05-15T09:56:33.948Z,6.92
2017-05-15T09:59:00.978Z,6.70
2017-05-15T10:01:28.021Z,6.78
2017-05-15T10:03:55.102Z,7.58
2017-05-15T10:06:23.077Z,6.56
2017-05-15T10:08:50.506Z,6.12
2017-05-15T10:11:17.501Z,5.90
2017-05-15T10:13:44.559Z,6.52
2017-05-15T10:16:11.597Z,6.86
2017-05-15T10:18:38.596Z,6.64
2017-05-15T10:21:06.042Z,7.52
2017-05-15T10:23:33.159Z,7.10
2017-05-15T10:26:00.217Z,6.08
2017-05-15T10:28:27.275Z,6.20
2017-05-15T10:30:54.337Z,5.70
2017-05-15T10:33:22.515Z,5.86
2017-05-15T10:35:50.374Z,5.32
2017-05-15T10:38:17.412Z,6.10
2017-05-15T10:40:44.487Z,5.16
2017-05-15T10:43:12.241Z,6.02
2017-05-15T10:45:40.399Z,5.54
2017-05-15T10:48:07.435Z,5.62
2017-05-15T10:50:34.446Z,6.16
2017-05-15T10:53:01.501Z,5.40
2017-05-15T10:55:28.521Z,5.32
2017-05-15T10:57:56.050Z,5.16
2017-05-15T11:00:23.794Z,4.84
2017-05-15T11:02:50.807Z,4.82
2017-05-15T11:05:17.845Z,5.40
2017-05-15T11:07:44.864Z,4.78
2017-05-15T11:10:13.023Z,4.70
2017-05-15T11:12:40.799Z,4.50
2017-05-15T11:15:07.847Z,4.64
2017-05-15T11:17:35.175Z,3.48
2017-05-15T11:20:02.208Z,3.12
2017-05-15T11:22:29.297Z,2.86
2017-05-15T11:24:56.701Z,2.80
2017-05-15T11:27:23.745Z,2.52
2017-05-15T11:29:50.755Z,2.56
2017-05-15T11:32:17.807Z,2.78
2017-05-15T11:34:44.837Z,2.34
2017-05-15T11:37:12.987Z,2.28
2017-05-15T11:39:40.780Z,2.70
2017-05-15T11:42:07.991Z,2.80
2017-05-15T11:44:35.800Z,2.52
2017-05-15T11:47:02.832Z,2.88
2017-05-15T11:49:30.247Z,2.92
2017-05-15T11:51:59.061Z,2.94
2017-05-15T11:54:26.811Z,2.42
2017-05-15T11:56:53.861Z,2.52
2017-05-15T11:59:21.713Z,2.34
2017-05-15T12:01:49.062Z,2.36
2017-05-15T12:04:16.092Z,2.82
2017-05-15T12:06:43.113Z,3.34
2017-05-15T12:09:10.173Z,2.90
2017-05-15T12:11:44.085Z,2.30
2017-05-15T12:14:12.158Z,3.50
2017-05-15T12:16:39.161Z,4.12
2017-05-15T12:19:06.228Z,4.28
2017-05-15T12:21:33.296Z,4.30
2017-05-15T12:24:00.309Z,4.32
2017-05-15T12:26:27.697Z,3.24
2017-05-15T12:28:54.701Z,4.14
2017-05-15T12:31:21.747Z,3.30
2017-05-15T12:33:48.796Z,3.28
2017-05-15T12:36:15.885Z,3.04
2017-05-15T12:38:44.065Z,3.52
2017-05-15T12:41:11.090Z,2.94
2017-05-15T12:43:38.099Z,2.88
2017-05-15T12:46:05.173Z,3.32
2017-05-15T12:48:32.205Z,3.96
2017-05-15T12:50:59.597Z,2.72
2017-05-15T12:53:26.619Z,2.86
2017-05-15T12:55:53.667Z,2.96
2017-05-15T12:58:20.700Z,3.02
2017-05-15T13:00:47.797Z,2.80
2017-05-15T13:03:15.936Z,2.82
2017-05-15T13:05:42.979Z,2.30
2017-05-15T13:08:09.987Z,3.00
2017-05-15T13:10:37.027Z,2.78
2017-05-15T13:13:04.028Z,2.14
2017-05-15T13:15:31.595Z,3.08
2017-05-15T13:17:58.637Z,3.18
2017-05-15T13:20:26.413Z,2.84
2017-05-15T13:22:53.484Z,2.64
2017-05-15T13:25:20.540Z,2.66
2017-05-15T13:27:47.910Z,2.40
2017-05-15T13:30:14.958Z,2.18
2017-05-15T13:32:42.006Z,2.32
2017-05-15T13:35:09.105Z,2.48
2017-05-15T13:37:36.166Z,2.48
2017-05-15T13:40:03.584Z,2.24
2017-05-15T13:42:30.628Z,2.38
2017-05-15T13:44:58.437Z,2.38
2017-05-15T13:47:25.477Z,2.12
2017-05-15T13:49:53.312Z,2.06
2017-05-15T13:52:20.667Z,2.54
2017-05-15T13:54:48.368Z,2.08
2017-05-15T13:57:15.432Z,1.98
2017-05-15T13:59:42.479Z,1.96
2017-05-15T14:02:09.492Z,2.26
2017-05-15T14:04:36.880Z,2.36
2017-05-15T14:07:03.908Z,2.00
2017-05-15T14:09:30.964Z,2.10
2017-05-15T14:11:58.021Z,2.54
2017-05-15T14:14:25.080Z,2.12
2017-05-15T14:16:53.255Z,2.26
2017-05-15T14:19:21.050Z,2.44
2017-05-15T14:21:48.080Z,2.00
2017-05-15T14:24:15.721Z,2.16
2017-05-15T14:26:43.559Z,2.02
2017-05-15T14:29:11.045Z,2.08
2017-05-15T14:31:38.089Z,2.28
2017-05-15T14:34:05.888Z,2.20
2017-05-15T14:36:32.932Z,1.96
2017-05-15T14:38:59.968Z,2.18
2017-05-15T14:41:27.013Z,1.74
2017-05-15T14:43:54.434Z,2.44
2017-05-15T14:46:22.228Z,2.40
2017-05-15T14:48:49.264Z,2.40
2017-05-15T14:51:16.354Z,2.26
2017-05-15T14:53:43.395Z,2.16
2017-05-15T14:56:10.889Z,2.26
2017-05-15T14:58:37.936Z,2.08
2017-05-15T15:01:05.013Z,2.30
2017-05-15T15:03:32.061Z,2.20
2017-05-15T15:05:59.084Z,2.50
2017-05-15T15:08:26.433Z,2.82
2017-05-15T15:10:54.733Z,2.46
2017-05-15T15:13:21.769Z,2.50
2017-05-15T15:15:49.560Z,2.04
2017-05-15T15:18:16.640Z,2.50
2017-05-15T15:20:44.097Z,2.14
2017-05-15T15:23:11.897Z,2.20
2017-05-15T15:25:38.937Z,1.98
2017-05-15T15:28:06.072Z,1.72
2017-05-15T15:30:33.117Z,1.82
2017-05-15T15:33:00.563Z,2.08
2017-05-15T15:35:27.662Z,1.90
2017-05-15T15:37:55.488Z,2.32
2017-05-15T15:40:23.469Z,2.34
2017-05-15T15:42:50.543Z,1.92
2017-05-15T15:45:18.043Z,2.32
2017-05-15T15:47:45.492Z,2.02
2017-05-15T15:50:12.578Z,1.96
2017-05-15T15:52:39.613Z,1.64
2017-05-15T15:55:06.635Z,1.70
2017-05-15T15:57:34.081Z,2.10
2017-05-15T16:00:01.871Z,1.66
2017-05-15T16:02:28.917Z,1.80
2017-05-15T16:04:55.987Z,2.04
2017-05-15T16:07:23.067Z,2.10
2017-05-15T16:09:51.454Z,1.56
2017-05-15T16:12:18.456Z,1.88
2017-05-15T16:14:45.478Z,2.18
2017-05-15T16:17:12.553Z,2.36
2017-05-15T16:19:39.738Z,1.88
2017-05-15T16:22:06.992Z,1.54
2017-05-15T16:24:34.085Z,1.88
2017-05-15T16:27:01.504Z,1.56
2017-05-15T16:29:28.569Z,1.70
2017-05-15T16:31:55.614Z,1.36
2017-05-15T16:34:22.694Z,1.28
2017-05-15T16:36:49.768Z,1.44
2017-05-15T16:39:17.621Z,1.42
2017-05-15T16:41:44.614Z,1.50
2017-05-15T16:44:11.642Z,1.42
2017-05-15T16:46:39.473Z,1.40
2017-05-15T16:49:06.515Z,1.38
2017-05-15T16:51:33.577Z,1.80
2017-05-15T16:54:00.593Z,2.00
2017-05-15T16:56:28.059Z,1.52
2017-05-15T16:58:55.189Z,1.52
2017-05-15T17:01:22.198Z,1.58
2017-05-15T17:03:49.276Z,1.36
2017-05-15T17:06:16.355Z,7.16
2017-05-15T17:08:43.798Z,2.04
2017-05-15T17:11:10.845Z,2.30
2017-05-15T17:13:38.656Z,2.42
2017-05-15T17:16:05.700Z,2.00
2017-05-15T17:18:33.473Z,2.08
2017-05-15T17:21:00.880Z,2.66
2017-05-15T17:23:27.896Z,2.20
2017-05-15T17:25:54.924Z,2.10
2017-05-15T17:28:21.965Z,2.12
2017-05-15T17:30:49.060Z,2.20
2017-05-15T17:33:16.445Z,2.58
2017-05-15T17:35:43.465Z,2.48
2017-05-15T17:38:10.533Z,2.88
2017-05-15T17:40:37.618Z,2.54
2017-05-15T17:43:04.645Z,2.92
2017-05-15T17:45:32.020Z,2.66
2017-05-15T17:47:59.036Z,3.28
2017-05-15T17:50:26.053Z,2.50
2017-05-15T17:52:53.503Z,2.72
2017-05-15T17:55:20.534Z,2.74
2017-05-15T17:57:47.562Z,3.22
2017-05-15T18:00:14.633Z,2.80
2017-05-15T18:02:42.378Z,2.28
2017-05-15T18:05:10.706Z,2.74
2017-05-15T18:07:37.816Z,2.76
2017-05-15T18:10:05.745Z,2.70
2017-05-15T18:12:32.967Z,2.62
2017-05-15T18:15:09.057Z,2.44
2017-05-15T18:17:36.518Z,2.30
2017-05-15T18:20:03.562Z,2.30
2017-05-15T18:22:31.129Z,2.50
2017-05-15T18:24:58.600Z,2.54
2017-05-15T18:27:25.708Z,2.32
2017-05-15T18:29:52.760Z,2.30
2017-05-15T18:32:20.256Z,2.44
2017-05-15T18:34:48.027Z,2.20
2017-05-15T18:37:15.801Z,2.52
2017-05-15T18:39:43.224Z,2.44
2017-05-15T18:42:10.330Z,2.30
2017-05-15T18:44:37.403Z,2.28
2017-05-15T18:47:04.799Z,2.90
2017-05-15T18:49:31.911Z,3.18
2017-05-15T18:51:59.115Z,2.30
2017-05-15T18:54:26.540Z,2.10
2017-05-15T18:56:53.585Z,2.20
2017-05-15T18:59:21.357Z,2.60
2017-05-15T19:01:49.485Z,2.44
2017-05-15T19:04:17.297Z,2.22
2017-05-15T19:06:44.346Z,2.92
2017-05-15T19:09:11.876Z,3.02
2017-05-15T19:11:38.881Z,2.28
2017-05-15T19:14:05.939Z,2.44
2017-05-15T19:16:33.310Z,2.06
2017-05-15T19:19:00.291Z,2.02
2017-05-15T19:21:27.341Z,2.14
2017-05-15T19:23:54.777Z,2.30
2017-05-15T19:26:21.906Z,2.28
2017-05-15T19:28:48.969Z,2.40
2017-05-15T19:31:16.332Z,2.20
2017-05-15T19:33:44.144Z,2.36
2017-05-15T19:36:11.149Z,2.20
2017-05-15T19:38:38.606Z,2.48
2017-05-15T19:41:05.701Z,1.92
2017-05-15T19:43:32.752Z,1.92
2017-05-15T19:46:00.142Z,1.84
2017-05-15T19:48:27.179Z,2.06
2017-05-15T19:50:54.204Z,2.42
2017-05-15T19:53:21.692Z,2.14
2017-05-15T19:55:48.705Z,1.98
2017-05-15T19:58:15.712Z,2.00
2017-05-15T20:00:43.042Z,2.30
2017-05-15T20:03:10.820Z,2.00
2017-05-15T20:05:38.581Z,2.18
2017-05-15T20:08:06.754Z,1.90
2017-05-15T20:10:34.506Z,2.18
2017-05-15T20:13:01.529Z,1.94
2017-05-15T20:15:30.144Z,1.90
2017-05-15T20:17:57.129Z,2.36
2017-05-15T20:20:24.108Z,2.16
2017-05-15T20:22:51.468Z,1.90
2017-05-15T20:25:18.461Z,2.20
2017-05-15T20:27:46.224Z,2.24
2017-05-15T20:30:14.367Z,2.20
2017-05-15T20:32:41.405Z,2.40
2017-05-15T20:35:08.432Z,1.74
2017-05-15T20:37:35.826Z,2.00
2017-05-15T20:40:02.850Z,2.32
2017-05-15T20:42:29.821Z,1.90
2017-05-15T20:44:57.165Z,2.12
2017-05-15T20:47:24.169Z,2.76
2017-05-15T20:49:51.365Z,2.88
2017-05-15T20:52:18.727Z,2.16
2017-05-15T20:54:45.759Z,2.00
2017-05-15T20:57:12.798Z,2.10
2017-05-15T20:59:40.177Z,1.86
2017-05-15T21:02:07.204Z,2.00
2017-05-15T21:04:34.295Z,2.46
2017-05-15T21:07:02.369Z,2.20
2017-05-15T21:09:29.371Z,2.40
2017-05-15T21:11:56.368Z,2.30
2017-05-15T21:14:24.496Z,1.82
2017-05-15T21:16:51.498Z,2.58
2017-05-15T21:19:18.509Z,2.46
2017-05-15T21:21:46.053Z,2.26
2017-05-15T21:24:13.079Z,2.48
2017-05-15T21:26:40.120Z,2.00
2017-05-15T21:29:07.527Z,2.18
2017-05-15T21:31:35.309Z,2.20
2017-05-15T21:34:03.061Z,2.40
2017-05-15T21:36:30.497Z,2.28
2017-05-15T21:38:57.513Z,2.50
2017-05-15T21:41:24.890Z,2.32
2017-05-15T21:43:52.333Z,2.60
2017-05-15T21:46:19.372Z,2.64
2017-05-15T21:48:46.397Z,2.20
2017-05-15T21:51:13.828Z,2.40
2017-05-15T21:53:40.883Z,2.48
2017-05-15T21:56:08.596Z,2.24
2017-05-15T21:58:35.929Z,2.56
2017-05-15T22:01:02.942Z,2.62
2017-05-15T22:03:29.952Z,2.60
2017-05-15T22:05:57.340Z,2.22
2017-05-15T22:08:24.327Z,2.36
2017-05-15T22:10:51.332Z,2.30
2017-05-15T22:13:18.649Z,2.32
2017-05-15T22:15:45.663Z,2.46
2017-05-15T22:18:12.698Z,2.60
2017-05-15T22:20:40.837Z,2.54
2017-05-15T22:23:07.849Z,3.16
2017-05-15T22:25:34.884Z,2.32
2017-05-15T22:28:02.312Z,2.50
2017-05-15T22:30:30.159Z,2.56
2017-05-15T22:32:57.191Z,2.88
2017-05-15T22:35:24.555Z,2.78
2017-05-15T22:37:51.552Z,2.68
2017-05-15T22:40:19.296Z,2.50
2017-05-15T22:42:47.468Z,3.24
2017-05-15T22:45:14.468Z,2.58
2017-05-15T22:47:41.439Z,2.96
2017-05-15T22:50:08.889Z,3.08
2017-05-15T22:52:35.918Z,2.72
2017-05-15T22:55:03.012Z,3.10
2017-05-15T22:57:30.480Z,2.82
2017-05-15T22:59:58.231Z,3.10
2017-05-15T23:02:25.253Z,2.72
2017-05-15T23:04:52.605Z,3.04
2017-05-15T23:07:19.681Z,3.08
2017-05-15T23:09:46.708Z,2.90
2017-05-15T23:12:14.067Z,2.88
2017-05-15T23:14:41.079Z,3.12
2017-05-15T23:17:08.068Z,2.58
2017-05-15T23:19:35.406Z,2.78
2017-05-15T23:22:02.584Z,3.40
2017-05-15T23:24:29.599Z,2.68
2017-05-15T23:26:56.967Z,3.10
2017-05-15T23:29:23.962Z,2.90
2017-05-15T23:31:50.958Z,3.32
2017-05-15T23:34:18.333Z,3.08
2017-05-15T23:36:45.320Z,2.96
2017-05-15T23:39:12.329Z,2.90
2017-05-15T23:41:39.801Z,2.78
2017-05-15T23:44:07.540Z,2.80
2017-05-15T23:46:34.544Z,2.98
2017-05-15T23:49:01.956Z,3.30
2017-05-15T23:51:28.972Z,3.16
2017-05-15T23:53:55.977Z,2.72
2017-05-15T23:56:23.390Z,2.72
2017-05-15T23:58:50.415Z,3.00
